Time;durP1;ratioP1;P1;durP2;ratioP2;P2;SDS_P1;SDS_P2;PMS_P1;PMS_P2;Temp;Humidity;BMP_temperature;BMP_pressure;BME280_temperature;BME280_humidity;BME280_pressure;Samples;Min_cycle;Max_cycle;Signal;HPM_P1;HPM_P2
2024/02/08 00:00:15;;;;;;;14.88;10.25;;;;;;;10.57;51.07;94092.78;4236299;27;20097;-78
2024/02/08 00:02:17;;;;;;;17.00;10.32;;;;;;;10.57;51.53;94094.59;4222757;28;20475;-79
2024/02/08 00:04:19;;;;;;;18.13;10.05;;;;;;;10.56;51.01;94100.78;4243483;27;20235;-77
2024/02/08 00:06:21;;;;;;;18.55;10.60;;;;;;;10.60;51.29;94094.22;4242735;27;20074;-75
2024/02/08 00:08:23;;;;;;;17.35;10.38;;;;;;;10.61;50.71;94101.09;4244143;27;20131;-77
2024/02/08 00:10:25;;;;;;;16.13;9.63;;;;;;;10.66;50.80;94096.16;4225634;28;20149;-78
2024/02/08 00:12:27;;;;;;;15.27;9.93;;;;;;;10.65;51.16;94089.28;4244303;27;20181;-77
2024/02/08 00:14:30;;;;;;;15.30;10.20;;;;;;;10.41;51.62;94092.84;4242797;27;20058;-77
2024/02/08 00:16:32;;;;;;;14.88;10.20;;;;;;;10.32;51.88;94093.91;4219407;28;20078;-75
2024/02/08 00:18:36;;;;;;;16.55;10.25;;;;;;;10.31;52.01;94102.75;4243992;27;20043;-80
2024/02/08 00:20:38;;;;;;;15.23;10.13;;;;;;;10.33;51.79;94098.16;4232851;27;20046;-78
2024/02/08 00:22:42;;;;;;;16.13;10.05;;;;;;;10.15;51.65;94096.59;4240916;27;20502;-77
2024/02/08 00:24:43;;;;;;;;;;;;;;;10.11;52.49;94091.84;4240512;27;20058;-77
2024/02/08 00:26:45;;;;;;;18.73;10.40;;;;;;;9.92;52.36;94096.53;4224931;28;20543;-79
2024/02/08 00:28:47;;;;;;;18.63;10.40;;;;;;;9.96;52.18;94096.97;4241806;27;20062;-79
2024/02/08 00:30:49;;;;;;;18.00;10.75;;;;;;;9.87;53.28;94098.00;4237371;27;20174;-80
2024/02/08 00:32:51;;;;;;;18.70;10.20;;;;;;;9.92;52.72;94090.47;4218733;28;20439;-77
2024/02/08 00:34:53;;;;;;;19.75;10.98;;;;;;;9.78;53.10;94081.53;4233804;27;20070;-79
2024/02/08 00:36:55;;;;;;;20.83;11.02;;;;;;;9.74;53.37;94083.66;4238480;27;20098;-76
2024/02/08 00:38:57;;;;;;;14.43;9.73;;;;;;;9.77;53.37;94083.34;4242523;27;20039;-76
2024/02/08 00:40:59;;;;;;;15.77;9.73;;;;;;;9.73;53.43;94089.88;4228639;27;20047;-76
2024/02/08 00:43:06;;;;;;;19.73;10.32;;;;;;;9.74;53.74;94093.31;4236000;27;20051;-75
2024/02/08 00:45:11;;;;;;;17.30;11.02;;;;;;;9.84;53.11;94092.13;4234440;27;20479;-76
2024/02/08 00:47:13;;;;;;;18.95;9.82;;;;;;;9.95;52.89;94090.94;4221973;28;20355;-76
2024/02/08 00:49:16;;;;;;;18.98;10.70;;;;;;;10.07;52.61;94091.38;4240480;27;20043;-76
2024/02/08 00:51:20;;;;;;;18.15;9.65;;;;;;;10.09;52.23;94096.44;4225369;28;20051;-76
2024/02/08 00:53:22;;;;;;;18.48;10.98;;;;;;;10.14;52.38;94094.94;4245345;27;20129;-78
2024/02/08 00:55:26;;;;;;;20.90;9.88;;;;;;;10.18;52.39;94096.25;4235189;27;20047;-79
2024/02/08 00:57:32;;;;;;;17.30;11.05;;;;;;;9.98;52.39;94095.00;4219384;27;20134;-79
2024/02/08 00:59:37;;;;;;;14.77;10.18;;;;;;;9.93;53.05;94092.91;4234530;27;20047;-79
2024/02/08 01:01:40;;;;;;;17.45;11.00;;;;;;;9.96;52.41;94086.50;4243890;27;20071;-76
2024/02/08 01:03:43;;;;;;;16.10;10.05;;;;;;;9.91;52.70;94083.59;4243800;27;20057;-77
2024/02/08 01:05:51;;;;;;;14.38;9.98;;;;;;;9.94;52.84;94088.50;4239452;27;20058;-76
2024/02/08 01:07:53;;;;;;;19.27;10.85;;;;;;;10.05;51.88;94090.75;4243815;27;20053;-77
2024/02/08 01:09:55;;;;;;;16.55;10.68;;;;;;;10.06;52.37;94094.97;4242773;27;20156;-77
2024/02/08 01:11:57;;;;;;;16.65;10.27;;;;;;;10.02;52.17;94084.06;4231643;27;20134;-78
2024/02/08 01:14:01;;;;;;;18.38;11.48;;;;;;;9.96;52.46;94082.13;4241775;27;20477;-75
2024/02/08 01:16:04;;;;;;;21.98;10.75;;;;;;;9.96;52.79;94082.13;4238374;27;20039;-77
2024/02/08 01:18:05;;;;;;;17.73;10.57;;;;;;;10.03;52.68;94085.66;4241589;27;20508;-79
2024/02/08 01:20:08;;;;;;;16.90;10.57;;;;;;;10.13;52.29;94093.31;4238329;27;20123;-78
2024/02/08 01:22:19;;;;;;;14.52;10.18;;;;;;;10.11;52.05;94086.59;4225495;28;20059;-78
2024/02/08 01:24:22;;;;;;;18.92;10.68;;;;;;;10.08;52.32;94087.78;4233540;27;20047;-75
2024/02/08 01:26:24;;;;;;;17.95;10.10;;;;;;;10.03;51.96;94083.06;4215404;28;20080;-76
2024/02/08 01:28:26;;;;;;;16.15;11.02;;;;;;;9.99;52.66;94080.97;4240196;27;20089;-78
2024/02/08 01:30:29;;;;;;;18.13;11.00;;;;;;;9.80;52.63;94080.38;4242488;27;20051;-76
2024/02/08 01:32:30;;;;;;;18.02;10.43;;;;;;;9.83;52.92;94092.31;4241786;27;20428;-77
2024/02/08 01:34:32;;;;;;;20.42;10.82;;;;;;;9.89;53.11;94088.19;4240158;27;20077;-80
2024/02/08 01:36:39;;;;;;;16.98;10.07;;;;;;;10.03;52.73;94090.91;4244290;27;20137;-74
2024/02/08 01:38:42;;;;;;;15.85;10.52;;;;;;;10.13;52.26;94090.72;4240177;28;20420;-74
2024/02/08 01:40:44;;;;;;;16.20;10.23;;;;;;;10.13;52.39;94077.63;4233094;28;20110;-74
2024/02/08 01:42:46;;;;;;;16.30;10.55;;;;;;;10.17;52.08;94073.66;4222318;28;20498;-76
2024/02/08 01:44:55;;;;;;;17.83;10.38;;;;;;;10.14;52.31;94076.63;4238892;28;20043;-76
2024/02/08 01:46:56;;;;;;;13.50;10.93;;;;;;;10.09;52.09;94070.25;4234343;28;20095;-78
2024/02/08 01:48:58;;;;;;;16.13;10.55;;;;;;;10.10;52.30;94066.69;4235508;28;20571;-77
2024/02/08 01:51:04;;;;;;;14.65;10.27;;;;;;;10.05;52.26;94059.34;4227163;28;20054;-77
2024/02/08 01:53:13;;;;;;;15.82;10.25;;;;;;;9.95;52.58;94066.56;4235681;28;20415;-77
2024/02/08 01:55:16;;;;;;;17.10;10.30;;;;;;;9.74;53.18;94062.72;4236485;28;20537;-78
2024/02/08 01:57:18;;;;;;;17.00;10.80;;;;;;;9.67;53.50;94056.56;4231613;28;20070;-76
2024/02/08 01:59:20;;;;;;;18.95;10.82;;;;;;;9.74;53.76;94065.34;4242974;28;20122;-75
2024/02/08 02:01:22;;;;;;;17.02;10.68;;;;;;;9.84;52.90;94065.16;4242808;28;20494;-78
2024/02/08 02:03:24;;;;;;;17.17;11.10;;;;;;;9.92;52.77;94056.47;4218399;28;20112;-80
2024/02/08 02:05:27;;;;;;;13.85;10.50;;;;;;;9.81;52.72;94055.84;4238283;28;20441;-77
2024/02/08 02:07:30;;;;;;;15.82;10.40;;;;;;;9.81;52.89;94053.22;4242509;28;20080;-78
2024/02/08 02:09:32;;;;;;;16.50;10.75;;;;;;;9.82;52.97;94054.03;4237851;28;20058;-77
2024/02/08 02:11:46;;;;;;;14.82;10.40;;;;;;;9.90;53.40;94061.06;4237790;28;20054;-76
2024/02/08 02:13:48;;;;;;;;;;;;;;;9.96;52.80;94060.34;4224243;28;20047;-76
2024/02/08 02:15:51;;;;;;;17.55;10.32;;;;;;;9.96;53.02;94057.72;4243512;28;19927;-78
2024/02/08 02:17:54;;;;;;;14.73;10.13;;;;;;;9.92;52.28;94056.47;4236254;27;20225;-79
2024/02/08 02:20:05;;;;;;;16.73;10.60;;;;;;;9.97;52.93;94054.13;4229705;27;20047;-77
2024/02/08 02:22:10;;;;;;;14.77;9.75;;;;;;;10.00;52.57;94052.00;4239541;27;20409;-77
2024/02/08 02:24:12;;;;;;;14.57;9.75;;;;;;;9.93;52.59;94058.88;4237250;27;20069;-79
2024/02/08 02:26:14;;;;;;;19.35;10.98;;;;;;;9.72;52.72;94058.66;4241366;27;20474;-78
2024/02/08 02:28:17;;;;;;;13.40;9.93;;;;;;;9.72;53.17;94054.25;4240826;27;20569;-77
2024/02/08 02:30:19;;;;;;;20.95;10.48;;;;;;;9.76;53.07;94063.38;4239870;27;20401;-78
2024/02/08 02:32:22;;;;;;;17.42;10.57;;;;;;;9.76;53.29;94059.94;4227799;28;20147;-78
2024/02/08 02:34:25;;;;;;;14.93;9.80;;;;;;;9.73;53.24;94058.50;4227206;28;20197;-78
2024/02/08 02:36:28;;;;;;;17.58;10.27;;;;;;;9.71;52.96;94059.66;4224389;27;20228;-76
2024/02/08 02:38:31;;;;;;;12.77;9.02;;;;;;;9.72;53.21;94056.88;4228124;27;20047;-78
2024/02/08 02:40:33;;;;;;;16.73;10.15;;;;;;;9.73;52.75;94066.34;4240776;27;20075;-76
2024/02/08 02:42:36;;;;;;;18.13;10.32;;;;;;;9.76;52.84;94057.34;4243554;27;20043;-76
2024/02/08 02:44:37;;;;;;;19.45;9.70;;;;;;;9.71;52.85;94051.81;4245296;27;20043;-76
2024/02/08 02:46:39;;;;;;;20.85;10.85;;;;;;;9.61;53.66;94050.22;4240559;27;20142;-79
2024/02/08 02:48:41;;;;;;;15.88;10.55;;;;;;;9.58;53.55;94052.34;4239842;27;20139;-78
2024/02/08 02:50:44;;;;;;;15.63;9.55;;;;;;;9.47;53.81;94058.75;4242088;27;20119;-77
2024/02/08 02:52:46;;;;;;;16.52;10.07;;;;;;;9.53;53.79;94049.41;4223247;27;20048;-77
2024/02/08 02:54:48;;;;;;;14.20;9.50;;;;;;;9.55;53.21;94047.44;4242865;27;20051;-78
2024/02/08 02:56:50;;;;;;;15.90;9.45;;;;;;;9.48;54.00;94057.75;4240491;27;20458;-78
2024/02/08 02:58:52;;;;;;;19.75;10.43;;;;;;;9.55;54.18;94048.28;4236814;27;20134;-76
2024/02/08 03:01:07;;;;;;;15.40;9.82;;;;;;;9.67;53.18;94047.91;4241107;27;20043;-75
2024/02/08 03:03:12;;;;;;;16.90;10.07;;;;;;;9.53;53.80;94050.25;4236263;27;20091;-78
2024/02/08 03:05:17;;;;;;;18.92;10.23;;;;;;;9.45;54.24;94049.44;4243256;27;20089;-76
2024/02/08 03:07:20;;;;;;;19.88;9.82;;;;;;;9.39;54.04;94046.50;4237316;27;20120;-75
2024/02/08 03:09:27;;;;;;;23.23;11.75;;;;;;;9.38;54.29;94049.31;4243601;27;20043;-75
2024/02/08 03:11:32;;;;;;;18.00;10.90;;;;;;;9.39;53.94;94056.97;4226840;27;20047;-76
2024/02/08 03:13:34;;;;;;;15.95;10.00;;;;;;;9.44;54.55;94059.06;4226998;28;20094;-75
2024/02/08 03:15:36;;;;;;;17.45;10.00;;;;;;;9.48;53.91;94060.38;4236153;27;20043;-77
2024/02/08 03:17:39;;;;;;;20.73;10.40;;;;;;;9.53;53.38;94057.25;4216630;28;20044;-77
2024/02/08 03:19:41;;;;;;;18.02;11.27;;;;;;;9.31;54.25;94051.75;4243811;27;20062;-78
2024/02/08 03:21:45;;;;;;;21.45;11.23;;;;;;;9.14;55.21;94055.38;4243427;27;20046;-79
2024/02/08 03:23:47;;;;;;;21.02;10.77;;;;;;;9.13;54.91;94053.75;4226654;27;20051;-77
2024/02/08 03:25:50;;;;;;;17.03;11.27;;;;;;;9.09;55.20;94050.66;4238158;27;20060;-76
2024/02/08 03:27:52;;;;;;;15.77;10.32;;;;;;;9.17;54.74;94039.38;4239045;27;20043;-75
2024/02/08 03:29:54;;;;;;;17.70;10.02;;;;;;;9.14;55.18;94037.09;4244736;27;20531;-76
2024/02/08 03:31:56;;;;;;;21.38;10.48;;;;;;;9.21;54.81;94035.47;4238908;27;20083;-76
2024/02/08 03:33:59;;;;;;;18.35;10.63;;;;;;;9.32;54.56;94035.09;4246509;27;20051;-77
2024/02/08 03:36:06;;;;;;;16.80;10.43;;;;;;;9.46;54.48;94032.75;4244477;27;20078;-75
2024/02/08 03:38:08;;;;;;;14.60;10.45;;;;;;;9.50;54.04;94037.47;4244568;27;20059;-75
2024/02/08 03:40:11;;;;;;;18.15;10.55;;;;;;;9.34;53.91;94027.91;4244163;27;20096;-75
2024/02/08 03:42:16;;;;;;;16.15;10.75;;;;;;;9.09;54.44;94036.78;4208608;28;20058;-74
2024/02/08 03:44:21;;;;;;;20.17;11.02;;;;;;;9.05;55.05;94045.94;4243484;27;20487;-75
2024/02/08 03:46:26;;;;;;;17.02;10.80;;;;;;;9.07;55.01;94036.94;4245345;27;20456;-76
2024/02/08 03:48:28;;;;;;;18.02;10.38;;;;;;;9.16;54.96;94032.50;4245089;27;20047;-75
2024/02/08 03:50:34;;;;;;;18.35;11.48;;;;;;;9.25;54.52;94035.91;4241598;27;20093;-75
2024/02/08 03:52:37;;;;;;;19.75;11.65;;;;;;;9.29;54.33;94034.59;4239950;27;20508;-78
2024/02/08 03:54:40;;;;;;;16.85;10.80;;;;;;;9.29;54.92;94040.66;4243143;27;20054;-79
2024/02/08 03:56:45;;;;;;;17.98;11.10;;;;;;;9.33;54.44;94035.91;4239532;27;20087;-77
2024/02/08 03:58:47;;;;;;;17.88;11.65;;;;;;;8.72;55.78;94046.75;4243266;27;20058;-77
2024/02/08 04:00:53;;;;;;;17.80;12.35;;;;;;;8.42;57.34;94052.63;4239838;27;20132;-76
2024/02/08 04:02:57;;;;;;;23.10;12.00;;;;;;;8.42;57.76;94048.22;4233142;27;20125;-77
2024/02/08 04:05:19;;;;;;;22.20;11.13;;;;;;;8.49;57.82;94041.38;4243992;27;20047;-78
2024/02/08 04:07:22;;;;;;;19.90;11.38;;;;;;;8.53;56.66;94036.66;4240543;27;20118;-78
2024/02/08 04:09:34;;;;;;;16.48;11.20;;;;;;;8.44;57.67;94038.44;4223463;28;20120;-76
2024/02/08 04:54:16;;;;;;;24.63;12.27;;;;;;;8.58;57.04;94056.09;4198648;28;20156;-80
2024/02/08 04:56:18;;;;;;;23.25;12.98;;;;;;;8.54;56.93;94052.16;4230975;27;20107;-79
2024/02/08 04:58:21;;;;;;;22.45;12.02;;;;;;;8.57;56.84;94062.25;4252851;27;20082;-80
2024/02/08 05:00:45;;;;;;;17.33;11.40;;;;;;;8.58;57.28;94042.19;4225249;27;20176;-76
2024/02/08 05:02:49;;;;;;;20.50;13.43;;;;;;;8.44;56.85;94063.72;4241932;27;20118;-80
2024/02/08 05:04:51;;;;;;;19.88;12.75;;;;;;;8.19;57.64;94043.63;4225412;28;20507;-79
2024/02/08 05:06:55;;;;;;;24.48;13.10;;;;;;;7.80;59.29;94046.75;4244153;27;20051;-81
2024/02/08 05:08:59;;;;;;;20.50;13.38;;;;;;;7.77;59.23;94049.69;4243288;27;20107;-76
2024/02/08 05:11:03;;;;;;;19.52;12.40;;;;;;;7.94;59.17;94054.97;4240452;27;20774;-76
2024/02/08 05:13:05;;;;;;;23.55;11.20;;;;;;;8.13;58.25;94052.06;4236504;27;20055;-77
2024/02/08 05:15:13;;;;;;;18.48;12.52;;;;;;;8.27;57.65;94061.06;4240141;27;20047;-75
2024/02/08 05:17:15;;;;;;;19.80;11.80;;;;;;;8.43;57.74;94062.09;4243141;27;20167;-77
2024/02/08 05:19:17;;;;;;;19.67;12.60;;;;;;;8.51;57.23;94060.28;4225027;28;20058;-79
2024/02/08 05:21:19;;;;;;;17.83;11.98;;;;;;;8.34;57.31;94046.38;4243411;27;20078;-78
2024/02/08 05:23:23;;;;;;;22.00;12.70;;;;;;;8.27;57.57;94055.03;4244183;27;20054;-76
2024/02/08 05:25:27;;;;;;;20.98;12.80;;;;;;;8.32;58.21;94058.78;4244686;27;20059;-79
2024/02/08 05:27:30;;;;;;;23.40;12.68;;;;;;;8.23;57.73;94067.56;4212861;28;20147;-79
2024/02/08 05:29:33;;;;;;;22.55;12.63;;;;;;;8.05;58.22;94067.69;4242575;27;20039;-77
2024/02/08 05:31:39;;;;;;;20.35;13.07;;;;;;;7.89;58.76;94065.03;4240316;27;20422;-81
2024/02/08 05:33:41;;;;;;;25.52;13.05;;;;;;;7.77;58.81;94073.16;4223732;28;20129;-79
2024/02/08 05:35:44;;;;;;;21.40;13.57;;;;;;;7.30;60.33;94072.78;4242653;27;20079;-80
2024/02/08 05:37:47;;;;;;;22.23;13.90;;;;;;;7.11;60.54;94073.78;4212952;28;20458;-78
2024/02/08 05:39:51;;;;;;;25.55;14.57;;;;;;;7.22;60.74;94081.34;4225382;28;20043;-74
2024/02/08 05:41:55;;;;;;;26.33;15.07;;;;;;;7.30;60.69;94084.00;4224000;28;20112;-77
2024/02/08 05:44:05;;;;;;;22.33;14.02;;;;;;;7.38;60.58;94075.44;4239554;28;20465;-76
2024/02/08 05:46:09;;;;;;;26.23;14.32;;;;;;;7.45;60.81;94101.69;4238918;28;20110;-75
2024/02/08 05:48:13;;;;;;;22.95;15.35;;;;;;;7.30;59.96;94091.81;4219884;28;20043;-77
2024/02/08 05:50:21;;;;;;;24.65;15.23;;;;;;;7.30;60.27;94085.78;4232892;28;20052;-78
2024/02/08 05:52:26;;;;;;;25.00;14.57;;;;;;;7.34;60.17;94085.31;4222948;28;20055;-78
2024/02/08 05:54:36;;;;;;;29.92;13.88;;;;;;;7.44;60.64;94087.00;4227421;28;20058;-77
2024/02/08 05:56:39;;;;;;;22.88;14.75;;;;;;;7.60;60.05;94092.31;4233025;27;20062;-79
2024/02/08 05:58:44;;;;;;;22.65;15.13;;;;;;;7.76;59.45;94096.75;4243693;27;20069;-78
2024/02/08 06:00:52;;;;;;;23.67;14.90;;;;;;;7.85;58.52;94093.25;4238484;27;20092;-77
2024/02/08 06:02:57;;;;;;;26.58;16.17;;;;;;;7.91;58.41;94092.59;4228572;27;20048;-76
2024/02/08 06:05:08;;;;;;;24.45;15.23;;;;;;;7.96;57.29;94099.97;4236401;27;20051;-75
2024/02/08 06:07:13;;;;;;;21.38;15.18;;;;;;;7.98;57.36;94091.00;4240809;27;20047;-78
2024/02/08 06:09:42;;;;;;;23.48;14.50;;;;;;;7.93;57.44;94090.63;4240486;27;20152;-76
2024/02/08 06:11:44;;;;;;;20.05;14.10;;;;;;;8.04;57.44;94086.13;4235892;27;20707;-77
2024/02/08 06:16:26;;;;;;;33.58;15.30;;;;;;;8.08;57.53;94096.06;4208605;28;20136;-77
2024/02/08 06:18:30;;;;;;;27.73;15.30;;;;;;;7.85;57.88;94097.63;4237453;27;20055;-78
2024/02/08 06:20:43;;;;;;;33.80;20.83;;;;;;;6.79;60.14;94113.44;4246097;27;20415;-79
2024/02/08 06:22:48;;;;;;;31.25;19.55;;;;;;;6.80;61.19;94109.84;4242316;27;20043;-80
2024/02/08 06:24:50;;;;;;;31.55;19.60;;;;;;;6.76;61.20;94111.94;4246176;27;20055;-77
2024/02/08 06:26:58;;;;;;;30.73;18.95;;;;;;;6.36;62.09;94105.41;4243625;27;20131;-79
2024/02/08 06:29:05;;;;;;;32.22;19.38;;;;;;;6.61;61.75;94100.44;4241255;27;20281;-78
2024/02/08 06:31:07;;;;;;;33.42;19.50;;;;;;;6.93;61.05;94113.72;4226530;27;20240;-80
2024/02/08 06:33:24;;;;;;;32.65;18.98;;;;;;;7.28;60.10;94109.38;4246776;27;20107;-76
2024/02/08 06:35:35;;;;;;;25.30;17.45;;;;;;;7.46;59.19;94122.34;4243897;27;20541;-75
2024/02/08 06:37:44;;;;;;;32.03;19.13;;;;;;;7.36;59.31;94125.06;4238805;27;20054;-75
2024/02/08 06:39:55;;;;;;;27.27;17.40;;;;;;;7.37;59.62;94118.88;4216964;28;20044;-74
2024/02/08 06:42:29;;;;;;;31.63;18.33;;;;;;;7.66;59.08;94117.75;4237477;27;20130;-75
2024/02/08 06:46:48;;;;;;;28.60;17.45;;;;;;;8.11;57.38;94123.63;4240125;27;20499;-74
2024/02/08 07:37:14;;;;;;;28.67;17.55;;;;;;;8.34;57.18;94127.28;4227120;28;20048;-79
2024/02/08 07:38:53;;;;;;;30.27;16.42;;;;;;;10.44;51.67;94085.47;4238725;27;20065;-76
2024/02/08 07:40:46;;;;;;;27.58;16.75;;;;;;;10.59;51.22;94080.31;4237107;27;20035;-77
2024/02/08 07:45:26;;;;;;;37.17;18.00;;;;;;;10.73;50.96;94086.59;4238630;27;20055;-75
2024/02/08 07:47:29;;;;;;;36.05;18.40;;;;;;;10.79;50.95;94087.72;4245439;27;20050;-77
2024/02/08 07:49:42;;;;;;;38.70;18.90;;;;;;;10.60;51.21;94084.59;4246140;27;20511;-79
2024/02/08 07:51:50;;;;;;;34.65;19.38;;;;;;;10.32;52.05;94086.84;4246348;27;20462;-78
2024/02/08 07:53:54;;;;;;;37.38;20.65;;;;;;;10.12;53.22;94099.53;4231559;28;20059;-80
2024/02/08 07:56:19;;;;;;;44.35;20.65;;;;;;;10.04;53.65;94094.31;4238037;27;20379;-81
2024/02/08 07:58:20;;;;;;;;;;;;;;;9.97;53.55;94094.19;4246398;27;20107;-79
2024/02/08 08:00:41;;;;;;;48.72;27.73;;;;;;;10.26;53.27;94095.41;4241651;27;20346;-78
2024/02/08 08:02:47;;;;;;;47.10;27.20;;;;;;;10.51;51.94;94090.84;4243916;27;20162;-79
2024/02/08 08:04:52;;;;;;;53.97;26.42;;;;;;;10.38;52.63;94093.22;4243790;27;20126;-77
2024/02/08 08:07:00;;;;;;;43.72;26.65;;;;;;;10.61;51.45;94094.06;4224574;27;20115;-77
2024/02/08 08:09:18;;;;;;;48.08;25.33;;;;;;;10.51;51.45;94101.31;4240756;27;20051;-79
2024/02/08 08:11:25;;;;;;;45.42;26.95;;;;;;;10.69;51.31;94094.97;4234451;27;20382;-80
2024/02/08 08:13:50;;;;;;;42.90;26.65;;;;;;;10.96;50.59;94101.50;4235593;27;20082;-78
2024/02/08 08:16:35;;;;;;;48.22;26.08;;;;;;;11.04;50.07;94097.00;4242993;27;20510;-78
2024/02/08 08:18:23;;;;;;;40.17;24.80;;;;;;;11.27;49.69;94102.22;4229069;27;20131;-78
2024/02/08 08:23:00;;;;;;;35.00;22.25;;;;;;;11.30;49.32;94095.00;4241469;27;20083;-79
2024/02/08 08:27:27;;;;;;;36.35;22.05;;;;;;;11.66;48.90;94097.75;4240012;27;20153;-81
2024/02/08 08:29:42;;;;;;;33.00;18.27;;;;;;;11.91;47.79;94097.50;4243879;27;20051;-77
2024/02/08 08:31:53;;;;;;;24.25;12.75;;;;;;;12.03;46.82;94096.06;4243630;27;20043;-80
2024/02/08 08:35:03;;;;;;;21.70;12.63;;;;;;;11.80;46.60;94096.94;4243726;27;20043;-82
2024/02/08 08:36:28;;;;;;;20.40;11.85;;;;;;;11.56;47.04;94092.75;4243031;27;20081;-78
2024/02/08 08:38:33;;;;;;;24.48;11.18;;;;;;;11.28;47.66;94087.31;4239915;27;20082;-76
2024/02/08 08:40:38;;;;;;;16.77;10.38;;;;;;;11.03;48.08;94094.56;4233305;27;20130;-77
2024/02/08 08:42:49;;;;;;;11.05;6.10;;;;;;;11.16;47.21;94084.28;4232897;27;20056;-81
2024/02/08 08:44:57;;;;;;;18.60;8.75;;;;;;;11.22;46.96;94082.78;4228709;27;20052;-78
2024/02/08 08:47:00;;;;;;;15.32;8.23;;;;;;;11.24;47.19;94075.53;4237107;27;20097;-79
2024/02/08 08:49:04;;;;;;;;;;;;;;;11.26;47.13;94078.81;4241665;27;20531;-80
2024/02/08 08:51:12;;;;;;;14.48;9.10;;;;;;;11.09;47.57;94074.69;4238446;27;19920;-77
2024/02/08 08:53:19;;;;;;;23.27;13.80;;;;;;;11.12;48.22;94075.16;4227393;27;20127;-81
2024/02/08 08:55:21;;;;;;;23.55;14.65;;;;;;;10.97;48.20;94080.38;4233447;27;20063;-82
2024/02/08 08:57:25;;;;;;;22.15;14.07;;;;;;;11.07;48.26;94074.88;4233928;27;20130;-77
2024/02/08 08:59:29;;;;;;;;;;;;;;;11.26;48.28;94078.81;4225199;28;20119;-83
2024/02/08 09:01:36;;;;;;;23.25;13.77;;;;;;;11.61;47.72;94074.66;4241602;27;19919;-77
2024/02/08 09:03:39;;;;;;;29.25;16.23;;;;;;;12.05;47.74;94076.50;4242409;27;20133;-80
2024/02/08 09:05:43;;;;;;;27.75;15.88;;;;;;;12.23;46.60;94073.47;4223800;28;20098;-77
2024/02/08 09:07:45;;;;;;;27.77;13.93;;;;;;;12.42;45.99;94077.31;4243044;27;20505;-80
2024/02/08 09:10:04;;;;;;;24.77;13.90;;;;;;;12.45;45.72;94073.50;4218729;28;20048;-79
2024/02/08 09:12:07;;;;;;;28.83;13.60;;;;;;;12.56;45.24;94073.03;4237892;27;20083;-77
2024/02/08 09:14:10;;;;;;;26.52;13.50;;;;;;;12.60;45.25;94066.38;4242587;27;20092;-78
2024/02/08 09:20:48;;;;;;;21.52;12.18;;;;;;;12.13;45.03;94070.34;4229045;27;20426;-79
2024/02/08 09:22:52;;;;;;;22.80;12.88;;;;;;;12.19;44.88;94066.97;4233022;27;20152;-77
2024/02/08 09:24:56;;;;;;;24.45;12.88;;;;;;;12.24;44.82;94064.63;4235170;27;20050;-79
2024/02/08 09:27:16;;;;;;;20.50;13.18;;;;;;;12.18;45.56;94069.78;4240811;27;20042;-77
2024/02/08 09:29:25;;;;;;;17.75;12.82;;;;;;;12.38;44.97;94070.00;4223313;27;20103;-78
2024/02/08 09:31:38;;;;;;;23.58;13.73;;;;;;;12.73;44.35;94064.91;4241733;27;20108;-82
2024/02/08 09:33:47;;;;;;;24.08;13.80;;;;;;;12.97;43.69;94066.31;4240312;27;20112;-80
2024/02/08 09:35:49;;;;;;;23.17;12.48;;;;;;;12.64;43.94;94069.47;4242829;27;20039;-78
2024/02/08 09:37:51;;;;;;;29.65;14.50;;;;;;;12.39;44.23;94072.47;4239090;27;20459;-78
2024/02/08 09:39:58;;;;;;;23.17;13.70;;;;;;;12.33;44.52;94067.94;4242841;27;20104;-76
2024/02/08 09:42:07;;;;;;;27.00;14.60;;;;;;;12.34;44.56;94066.13;4239995;28;20055;-80
2024/02/08 09:44:11;;;;;;;25.77;13.57;;;;;;;12.81;43.92;94062.16;4216366;28;20079;-80
2024/02/08 09:48:48;;;;;;;22.15;11.20;;;;;;;13.43;41.75;94053.56;4230369;28;19931;-80
2024/02/08 09:50:50;;;;;;;21.75;11.65;;;;;;;13.35;42.13;94061.59;4238232;28;20095;-80
2024/02/08 09:52:57;;;;;;;18.90;11.80;;;;;;;13.21;42.11;94054.63;4241714;28;20055;-82
2024/02/08 09:55:08;;;;;;;24.17;11.45;;;;;;;13.42;42.20;94046.69;4220666;28;20044;-77
2024/02/08 09:57:22;;;;;;;21.42;11.90;;;;;;;13.80;41.45;94051.56;4223764;28;20048;-77
2024/02/08 10:00:34;;;;;;;24.30;12.73;;;;;;;14.07;41.13;94051.72;4213620;28;20047;-75
2024/02/08 10:01:52;;;;;;;22.98;11.60;;;;;;;14.25;40.33;94049.34;4232235;28;20073;-78
2024/02/08 10:04:15;;;;;;;22.38;12.77;;;;;;;14.53;40.25;94046.56;4249353;28;20074;-80
2024/02/08 10:06:24;;;;;;;22.90;12.10;;;;;;;14.54;39.36;94039.50;4244472;28;20047;-78
2024/02/08 10:08:31;;;;;;;21.45;11.05;;;;;;;14.63;39.12;94035.69;4238710;28;20063;-78
2024/02/08 10:11:07;;;;;;;17.02;9.95;;;;;;;14.70;38.77;94036.50;4241099;28;20047;-77
2024/02/08 10:13:14;;;;;;;22.63;10.67;;;;;;;14.64;39.00;94029.41;4229470;28;20490;-77
2024/02/08 10:15:17;;;;;;;19.00;10.88;;;;;;;14.64;38.99;94029.41;4239380;28;20453;-79
2024/02/08 10:17:25;;;;;;;20.55;11.25;;;;;;;14.55;39.11;94025.34;4239349;28;20271;-79
2024/02/08 10:19:28;;;;;;;18.02;10.82;;;;;;;14.69;39.04;94021.72;4232972;28;20048;-78
2024/02/08 10:21:35;;;;;;;19.58;10.48;;;;;;;14.95;38.77;94028.03;4227769;28;20059;-79
2024/02/08 10:23:48;;;;;;;16.10;10.30;;;;;;;15.23;38.16;94019.06;4239672;28;20396;-78
2024/02/08 10:28:25;;;;;;;14.82;10.13;;;;;;;14.92;38.02;94010.75;4237565;28;20123;-79
2024/02/08 10:30:28;;;;;;;20.08;9.55;;;;;;;14.59;38.34;94010.75;4218878;28;20109;-78
2024/02/08 10:32:33;;;;;;;20.10;9.73;;;;;;;14.56;38.38;94011.13;4220247;28;20128;-81
2024/02/08 10:34:39;;;;;;;19.58;10.35;;;;;;;14.47;38.37;94007.84;4238073;28;20043;-78
2024/02/08 10:36:44;;;;;;;20.10;9.50;;;;;;;14.59;38.19;94009.94;4209153;28;20080;-79
2024/02/08 10:38:57;;;;;;;19.23;10.00;;;;;;;14.52;38.13;94007.25;4204461;27;20068;-77
2024/02/08 10:41:02;;;;;;;16.13;8.98;;;;;;;14.58;38.01;94001.19;4242917;27;20135;-77
2024/02/08 10:43:16;;;;;;;21.60;9.45;;;;;;;14.91;37.76;94000.44;4216988;28;20102;-77
2024/02/08 10:45:23;;;;;;;22.83;9.63;;;;;;;15.07;37.71;94002.66;4227479;27;20144;-76
2024/02/08 10:47:37;;;;;;;19.90;10.32;;;;;;;14.95;37.32;93993.75;4217000;28;20077;-79
2024/02/08 10:49:50;;;;;;;21.27;10.23;;;;;;;15.04;37.85;93986.44;4221909;27;20191;-76
2024/02/08 10:52:00;;;;;;;21.67;10.27;;;;;;;14.92;38.43;93983.59;4238938;27;20412;-79
2024/02/08 10:54:08;;;;;;;23.02;10.10;;;;;;;15.15;38.31;93981.34;4237587;27;20047;-81
2024/02/08 10:56:14;;;;;;;18.67;9.65;;;;;;;15.32;37.71;93979.09;4241143;27;20090;-77
2024/02/08 10:58:21;;;;;;;22.33;9.80;;;;;;;15.20;37.79;93979.91;4243996;27;20499;-80
2024/02/08 11:02:49;;;;;;;18.10;9.60;;;;;;;15.05;37.46;93973.03;4242988;27;20055;-77
2024/02/08 11:05:12;;;;;;;22.10;9.30;;;;;;;14.97;37.84;93970.63;4214764;28;20087;-75
2024/02/08 11:09:18;;;;;;;25.92;9.52;;;;;;;15.10;37.07;93964.50;4232551;27;20433;-82
2024/02/08 11:11:21;;;;;;;15.07;9.35;;;;;;;14.93;37.33;93961.50;4236191;27;20047;-77
2024/02/08 11:13:29;;;;;;;15.25;8.18;;;;;;;14.83;37.19;93953.97;4246541;27;20051;-75
2024/02/08 11:15:38;;;;;;;17.20;7.78;;;;;;;15.04;37.16;93960.88;4244942;27;20100;-77
2024/02/08 11:17:49;;;;;;;17.92;9.00;;;;;;;15.33;36.58;93956.16;4245827;27;20043;-77
2024/02/08 11:19:58;;;;;;;15.35;7.63;;;;;;;15.28;36.04;93950.69;4221189;28;20081;-80
2024/02/08 11:22:24;;;;;;;17.83;8.40;;;;;;;15.60;35.95;93948.97;4243393;27;20039;-78
2024/02/08 11:24:38;;;;;;;19.40;8.20;;;;;;;15.70;35.44;93948.53;4232268;27;20047;-78
2024/02/08 11:26:54;;;;;;;20.35;8.45;;;;;;;15.73;35.29;93941.03;4217961;27;20101;-78
2024/02/08 11:29:04;;;;;;;17.77;8.77;;;;;;;16.01;35.09;93939.91;4239607;27;20200;-78
2024/02/08 11:31:17;;;;;;;20.23;8.43;;;;;;;16.17;35.28;93933.31;4240547;27;20093;-79
2024/02/08 11:33:32;;;;;;;15.95;8.60;;;;;;;16.42;34.92;93935.19;4237055;27;20055;-80
2024/02/08 11:35:45;;;;;;;18.20;7.88;;;;;;;16.56;34.66;93928.78;4236381;27;20382;-82
2024/02/08 11:37:47;;;;;;;20.40;8.38;;;;;;;16.48;34.15;93926.41;4235730;27;20040;-79
2024/02/08 11:40:00;;;;;;;18.40;6.90;;;;;;;16.00;33.96;93927.69;4242622;27;20050;-77
2024/02/08 11:42:16;;;;;;;16.27;7.80;;;;;;;16.12;34.22;93925.22;4243327;27;20398;-79